createdAt,value
2018-11-21T00:01:25.473Z,58.30
2018-11-21T00:04:14.197Z,58.50
2018-11-21T00:06:58.543Z,58.40
2018-11-21T00:09:39.758Z,58.60
2018-11-21T00:15:37.523Z,58.30
2018-11-21T00:18:13.155Z,58.40
2018-11-21T00:20:48.562Z,58.30
2018-11-21T00:23:27.975Z,58.40
2018-11-21T00:26:20.145Z,58.40
2018-11-21T00:28:49.264Z,58.50
2018-11-21T00:31:25.702Z,58.40
2018-11-21T00:33:59.407Z,58.50
2018-11-21T00:36:35.402Z,58.30
2018-11-21T00:39:11.433Z,58.20
2018-11-21T00:41:52.365Z,58.20
2018-11-21T00:44:28.907Z,58.20
2018-11-21T00:47:11.053Z,58.30
2018-11-21T00:50:04.545Z,58.20
2018-11-21T00:52:36.859Z,58.30
2018-11-21T00:55:19.011Z,58.30
2018-11-21T00:58:06.092Z,58.30
2018-11-21T01:00:38.433Z,58.50
2018-11-21T01:06:13.053Z,58.20
2018-11-21T01:09:09.958Z,58.40
2018-11-21T01:11:56.394Z,58.20
2018-11-21T01:14:37.031Z,58.50
2018-11-21T01:17:52.404Z,58.20
2018-11-21T01:20:15.417Z,58.40
2018-11-21T01:26:01.413Z,58.00
2018-11-21T01:29:00.616Z,58.40
2018-11-21T01:31:33.620Z,58.60
2018-11-21T01:34:36.570Z,58.30
2018-11-21T01:40:35.947Z,58.30
2018-11-21T01:43:33.375Z,58.50
2018-11-21T01:49:51.313Z,58.30
2018-11-21T01:55:57.284Z,58.20
2018-11-21T01:59:05.716Z,58.40
2018-11-21T02:01:59.261Z,58.50
2018-11-21T02:05:05.482Z,58.60
2018-11-21T02:08:16.527Z,58.20
2018-11-21T02:14:07.287Z,58.60
2018-11-21T02:17:06.366Z,58.30
2018-11-21T02:19:42.712Z,58.50
2018-11-21T02:22:21.091Z,58.50
2018-11-21T02:25:00.755Z,58.60
2018-11-21T02:27:48.518Z,58.40
2018-11-21T02:30:38.526Z,58.50
2018-11-21T02:33:21.549Z,58.50
2018-11-21T02:36:09.579Z,58.50
2018-11-21T02:38:59.820Z,58.30
2018-11-21T02:41:42.345Z,58.50
2018-11-21T02:44:37.802Z,58.70
2018-11-21T02:47:40.541Z,58.70
2018-11-21T02:50:13.572Z,58.50
2018-11-21T02:53:02.758Z,58.40
2018-11-21T02:55:44.421Z,58.30
2018-11-21T03:04:39.105Z,58.30
2018-11-21T03:08:00.357Z,58.70
2018-11-21T03:10:24.328Z,58.60
2018-11-21T03:12:52.968Z,58.80
2018-11-21T03:15:21.492Z,58.80
2018-11-21T03:17:50.505Z,58.60
2018-11-21T03:20:19.469Z,58.60
2018-11-21T03:22:52.767Z,58.50
2018-11-21T03:25:33.245Z,58.60
2018-11-21T03:28:09.141Z,58.40
2018-11-21T03:30:52.909Z,58.60
2018-11-21T03:33:28.221Z,58.80
2018-11-21T03:36:03.552Z,58.50
2018-11-21T03:38:48.883Z,58.70
2018-11-21T03:41:31.222Z,58.70
2018-11-21T03:44:18.463Z,58.90
2018-11-21T03:47:05.174Z,58.90
2018-11-21T03:50:01.838Z,59.00
2018-11-21T03:52:37.621Z,58.90
2018-11-21T03:55:21.565Z,58.80
2018-11-21T03:58:03.184Z,58.90
2018-11-21T04:00:48.861Z,59.00
2018-11-21T04:03:30.136Z,58.90
2018-11-21T04:06:28.519Z,59.10
2018-11-21T04:09:10.755Z,58.80
2018-11-21T04:14:53.793Z,59.20
2018-11-21T04:17:54.015Z,59.00
2018-11-21T04:20:36.883Z,58.80
2018-11-21T04:23:12.755Z,59.10
2018-11-21T04:26:09.459Z,59.20
2018-11-21T04:28:38.260Z,58.90
2018-11-21T04:31:31.817Z,59.20
2018-11-21T04:34:04.818Z,59.00
2018-11-21T04:36:54.143Z,59.00
2018-11-21T04:39:30.294Z,59.30
2018-11-21T04:42:16.435Z,59.20
2018-11-21T04:44:51.695Z,59.10
2018-11-21T04:47:43.660Z,59.20
2018-11-21T04:50:31.236Z,59.40
2018-11-21T04:53:06.259Z,59.30
2018-11-21T05:01:25.233Z,59.10
2018-11-21T05:07:55.486Z,59.30
2018-11-21T05:10:27.361Z,59.10
2018-11-21T05:13:17.618Z,59.20
2018-11-21T05:15:52.587Z,59.10
2018-11-21T05:18:48.257Z,59.10
2018-11-21T05:21:23.245Z,59.20
2018-11-21T05:24:19.210Z,59.50
2018-11-21T05:26:58.305Z,59.30
2018-11-21T05:32:13.355Z,59.10
2018-11-21T05:34:53.112Z,59.50
2018-11-21T05:37:30.540Z,59.40
2018-11-21T05:40:12.406Z,59.40
2018-11-21T05:43:02.585Z,59.20
2018-11-21T05:45:35.768Z,59.20
2018-11-21T05:48:10.856Z,59.30
2018-11-21T05:50:58.481Z,59.40
2018-11-21T05:53:52.220Z,59.50
2018-11-21T05:56:23.116Z,59.40
2018-11-21T05:59:06.552Z,59.30
2018-11-21T06:01:50.058Z,59.60
2018-11-21T06:04:44.119Z,59.40
2018-11-21T06:07:28.696Z,59.50
2018-11-21T06:10:20.792Z,59.70
2018-11-21T06:12:49.565Z,59.70
2018-11-21T06:15:21.227Z,59.70
2018-11-21T06:17:50.229Z,59.90
2018-11-21T06:20:22.858Z,60.00
2018-11-21T06:22:57.049Z,60.00
2018-11-21T06:25:37.682Z,60.00
2018-11-21T06:28:11.469Z,60.00
2018-11-21T06:30:52.569Z,60.00
2018-11-21T06:33:24.987Z,60.00
2018-11-21T06:36:10.254Z,60.00
2018-11-21T06:38:52.194Z,59.90
2018-11-21T06:41:26.507Z,59.90
2018-11-21T06:44:01.747Z,59.80
2018-11-21T06:46:40.695Z,59.90
2018-11-21T06:49:18.257Z,59.70
2018-11-21T06:52:10.633Z,59.80
2018-11-21T06:55:10.973Z,59.80
2018-11-21T06:57:51.079Z,59.60
2018-11-21T07:00:32.261Z,59.70
2018-11-21T07:03:21.420Z,60.00
2018-11-21T07:08:34.244Z,59.60
2018-11-21T07:11:31.986Z,59.80
2018-11-21T07:14:17.688Z,59.60
2018-11-21T07:17:10.642Z,59.80
2018-11-21T07:19:59.348Z,60.00
2018-11-21T07:22:36.934Z,59.70
2018-11-21T07:25:30.857Z,59.80
2018-11-21T07:28:40.782Z,59.90
2018-11-21T07:31:47.155Z,60.10
2018-11-21T07:34:35.832Z,60.10
2018-11-21T07:37:19.995Z,59.90
2018-11-21T07:40:08.748Z,60.00
2018-11-21T07:45:31.537Z,60.00
2018-11-21T07:48:04.117Z,60.30
2018-11-21T07:50:44.397Z,60.30
2018-11-21T07:53:21.532Z,60.10
2018-11-21T07:56:05.572Z,60.40
2018-11-21T07:58:43.772Z,60.50
2018-11-21T08:02:13.036Z,61.40
2018-11-21T08:05:18.975Z,61.20
2018-11-21T08:08:22.614Z,60.20
2018-11-21T08:11:29.850Z,60.30
2018-11-21T08:14:25.868Z,60.30
2018-11-21T08:17:27.777Z,60.70
2018-11-21T08:20:37.567Z,60.70
2018-11-21T08:27:37.942Z,60.60
2018-11-21T08:31:16.055Z,60.60
2018-11-21T08:38:46.705Z,60.90
2018-11-21T08:42:04.432Z,60.70
2018-11-21T08:44:33.117Z,60.80
2018-11-21T08:47:01.876Z,60.90
2018-11-21T08:52:26.523Z,60.80
2018-11-21T08:54:56.686Z,61.20
2018-11-21T08:57:25.993Z,61.00
2018-11-21T08:59:54.908Z,61.10
2018-11-21T09:02:23.969Z,61.80
2018-11-21T09:04:52.558Z,60.90
2018-11-21T09:07:21.305Z,61.00
2018-11-21T09:09:57.477Z,61.10
2018-11-21T09:12:41.050Z,61.10
2018-11-21T09:18:47.056Z,61.00
2018-11-21T09:21:17.160Z,61.00
2018-11-21T09:23:48.877Z,61.00
2018-11-21T09:26:20.442Z,61.10
2018-11-21T09:32:32.570Z,61.00
2018-11-21T09:35:01.614Z,60.90
2018-11-21T09:37:50.368Z,61.00
2018-11-21T09:40:23.104Z,60.80
2018-11-21T09:42:53.238Z,60.90
2018-11-21T09:45:22.720Z,60.70
2018-11-21T09:47:51.471Z,60.60
2018-11-21T09:50:24.692Z,60.70
2018-11-21T09:52:53.434Z,60.60
2018-11-21T09:55:22.414Z,60.70
2018-11-21T09:58:09.128Z,60.70
2018-11-21T10:01:13.585Z,60.70
2018-11-21T10:03:42.816Z,60.60
2018-11-21T10:06:15.350Z,60.60
2018-11-21T10:09:26.287Z,60.60
2018-11-21T10:12:18.497Z,60.60
2018-11-21T10:15:18.168Z,60.80
2018-11-21T10:18:20.614Z,60.90
2018-11-21T10:21:22.939Z,60.50
2018-11-21T10:23:45.654Z,60.80
2018-11-21T10:26:15.149Z,60.50
2018-11-21T10:28:44.211Z,60.20
2018-11-21T10:31:12.854Z,60.20
2018-11-21T10:33:41.705Z,60.30
2018-11-21T10:36:10.389Z,60.40
2018-11-21T10:38:38.996Z,60.30
2018-11-21T10:41:07.890Z,60.40
2018-11-21T10:43:37.009Z,60.50
2018-11-21T10:46:06.079Z,60.60
2018-11-21T10:48:34.786Z,60.70
2018-11-21T10:51:03.499Z,60.60
2018-11-21T10:53:32.042Z,60.60
2018-11-21T10:56:00.524Z,60.50
2018-11-21T10:58:29.221Z,60.30
2018-11-21T11:01:15.358Z,60.50
2018-11-21T11:03:46.566Z,60.40
2018-11-21T11:06:43.269Z,60.30
2018-11-21T11:09:30.465Z,60.30
2018-11-21T11:12:16.852Z,60.00
2018-11-21T11:15:04.601Z,60.00
2018-11-21T11:17:50.711Z,60.20
2018-11-21T11:20:36.296Z,60.00
2018-11-21T11:23:22.825Z,60.00
2018-11-21T11:26:12.277Z,60.00
2018-11-21T11:28:58.584Z,60.10
2018-11-21T11:32:04.151Z,60.00
2018-11-21T11:34:50.473Z,60.00
2018-11-21T11:37:50.382Z,60.10
2018-11-21T11:40:38.347Z,60.00
2018-11-21T11:43:32.830Z,60.00
2018-11-21T11:46:18.879Z,60.00
2018-11-21T11:49:24.900Z,60.00
2018-11-21T11:52:11.155Z,60.00
2018-11-21T11:54:57.345Z,59.80
2018-11-21T11:57:43.953Z,59.80
2018-11-21T12:00:31.954Z,60.00
2018-11-21T12:03:22.447Z,60.20
2018-11-21T12:06:08.417Z,60.20
2018-11-21T12:09:05.126Z,60.40
2018-11-21T12:15:08.577Z,60.40
2018-11-21T12:17:54.637Z,60.30
2018-11-21T12:20:43.748Z,60.40
2018-11-21T12:23:30.441Z,60.50
2018-11-21T12:26:22.584Z,60.40
2018-11-21T12:29:09.018Z,60.30
2018-11-21T12:31:59.949Z,60.40
2018-11-21T12:34:56.810Z,60.50
2018-11-21T12:37:51.289Z,60.30
2018-11-21T12:40:32.540Z,60.40
2018-11-21T12:43:29.389Z,60.30
2018-11-21T12:46:17.991Z,60.30
2018-11-21T12:49:17.954Z,60.40
2018-11-21T12:52:05.750Z,60.50
2018-11-21T12:54:54.045Z,60.60
2018-11-21T12:57:55.149Z,60.70
2018-11-21T13:00:54.939Z,60.60
2018-11-21T13:03:40.931Z,60.40
2018-11-21T13:06:27.601Z,60.50
2018-11-21T13:09:07.313Z,60.60
2018-11-21T13:11:59.302Z,60.40
2018-11-21T13:14:45.311Z,60.50
2018-11-21T13:17:41.448Z,60.50
2018-11-21T13:20:42.622Z,60.40
2018-11-21T13:23:42.400Z,60.50
2018-11-21T13:26:55.246Z,60.50
2018-11-21T13:29:48.851Z,60.60
2018-11-21T13:32:35.315Z,60.70
2018-11-21T13:35:23.272Z,60.70
2018-11-21T13:38:23.279Z,60.70
2018-11-21T13:41:09.588Z,60.60
2018-11-21T13:43:55.857Z,60.60
2018-11-21T13:46:31.621Z,60.40
2018-11-21T13:49:17.615Z,60.50
2018-11-21T13:52:04.201Z,60.50
2018-11-21T13:54:49.987Z,60.50
2018-11-21T13:57:22.517Z,60.50
2018-11-21T13:59:51.951Z,60.50
2018-11-21T14:02:21.010Z,60.70
2018-11-21T14:04:50.379Z,60.70
2018-11-21T14:07:19.337Z,60.90
2018-11-21T14:10:20.326Z,61.00
2018-11-21T14:12:44.994Z,61.20
2018-11-21T14:15:13.879Z,61.20
2018-11-21T14:17:42.571Z,61.20
2018-11-21T14:20:12.469Z,61.20
2018-11-21T14:22:41.324Z,61.30
2018-11-21T14:25:11.131Z,61.30
2018-11-21T14:27:40.042Z,61.20
2018-11-21T14:30:14.939Z,61.30
2018-11-21T14:32:43.879Z,61.30
2018-11-21T14:35:14.348Z,61.30
2018-11-21T14:37:44.021Z,61.30
2018-11-21T14:40:15.979Z,61.20
2018-11-21T14:42:44.944Z,61.30
2018-11-21T14:45:14.985Z,61.30
2018-11-21T14:47:44.049Z,61.30
2018-11-21T14:50:39.340Z,61.30
2018-11-21T14:53:07.078Z,61.30
2018-11-21T14:55:35.712Z,61.40
2018-11-21T14:58:04.258Z,61.30
2018-11-21T15:00:32.951Z,61.30
2018-11-21T15:03:02.637Z,61.30
2018-11-21T15:05:31.793Z,61.30
2018-11-21T15:07:59.847Z,61.40
2018-11-21T15:10:28.601Z,61.30
2018-11-21T15:12:57.110Z,61.40
2018-11-21T15:15:25.694Z,61.50
2018-11-21T15:17:54.291Z,61.40
2018-11-21T15:20:24.123Z,61.30
2018-11-21T15:22:55.830Z,61.40
2018-11-21T15:25:30.191Z,61.30
2018-11-21T15:27:59.016Z,61.40
2018-11-21T15:30:29.034Z,61.50
2018-11-21T15:32:57.623Z,61.40
2018-11-21T15:35:26.111Z,61.50
2018-11-21T15:37:54.561Z,61.40
2018-11-21T15:40:24.412Z,61.40
2018-11-21T15:42:52.928Z,61.20
2018-11-21T15:45:22.791Z,61.20
2018-11-21T15:47:53.224Z,61.30
2018-11-21T15:50:22.241Z,61.30
2018-11-21T15:52:53.126Z,61.30
2018-11-21T15:55:19.973Z,61.10
2018-11-21T15:57:48.875Z,61.10
2018-11-21T16:00:21.861Z,61.30
2018-11-21T16:02:52.035Z,61.20
2018-11-21T16:05:20.984Z,61.30
2018-11-21T16:07:49.948Z,61.20
2018-11-21T16:10:20.619Z,61.30
2018-11-21T16:12:49.353Z,61.30
2018-11-21T16:15:20.940Z,61.20
2018-11-21T16:18:07.580Z,61.20
2018-11-21T16:20:36.180Z,61.20
2018-11-21T16:23:04.722Z,61.30
2018-11-21T16:25:33.295Z,61.30
2018-11-21T16:28:01.744Z,61.30
2018-11-21T16:30:30.911Z,61.30
